logo
App data

Evil Genius

Everybody wants to rule the world! Achieve global power with EVIL GENIUS, the one and only complete world domination simulator. All the everyday tasks of the deliciously wicked mastermind are available to experience and master from building your ultra-secret base to developing spectacular super-weapons to carry out your nefarious master...
Store | Hub | SteamDB | Site
Developer: Elixir Studios Publisher: Rebellion
Genre: Strategy
Languages: English, French, German, Spanish - Spain
Tags: Base-Building (208), Strategy (187), Villain Protagonist (176), Comedy (123), Singleplayer (115), Simulation (87), Parody (80), Stylized (70), Management (65), RTS (64), Funny (61), Real-Time with Pause (52), Classic (38), Building (35), Masterpiece (25), God Game (17), Great Soundtrack (15), Colorful (15), Sandbox (8)
Category: Single-player
Release date: Sep 28, 2004
Price: $9.99
Old userscore: 95% Metascore: 75%
Owners: 200,000 .. 500,000
Followers: 8,074
Peak concurrent players yesterday: 60
YouTube stats: 490 views and 26 comments for top 50 videos uploaded last week, 2 new videos uploaded yesterday.
Playtime total: 13:40 (average) 20:03 (median)

Steam Spy is still in beta, so expect major bugs.

Owners data:

Access restricted.

This feature is only available to users with special access rights. Sorry.

If you want to proceed, you need to register or log in first and then back Steam Spy on Patreon. Look for Indie or Pro pledge.

Don't forget to use the same email as on Steam Spy!

Audience in 2 weeks:

Access restricted.

This feature is only available to users with special access rights. Sorry.

If you want to proceed, you need to register or log in first and then back Steam Spy on Patreon. Look for Indie or Pro pledge.

Don't forget to use the same email as on Steam Spy!

Peak daily concurrent players:

CCU data courtesy of SteamDB. Used with permission.

Hourly concurrent players:

Daily Twitch stats:

Hourly Twitch stats:

Followers over time

Access restricted.

This feature is only available to users with special access rights. Sorry.

If you want to proceed, you need to register or log in first and then back Steam Spy on Patreon. Look for Indie or Pro pledge.

Don't forget to use the same email as on Steam Spy!

Views for top 50 videos on YouTube for this game:

Games similar to this one:

# Game Release date
Price
Score rank
(Userscore / Metascore)
Owners
Players
Playtime (Median)
1 Platypus II Aug 15, 2014 $6.99N/A (N/A)200,000 .. 500,0000%00:00 (00:00)
2 Sonic Lost World Nov 2, 2015 $29.99N/A (N/A)100,000 .. 200,0000%00:00 (00:00)
3 Trine 3: The Artifacts of Power Aug 20, 2015 $21.99N/A (N/A)500,000 .. 1,000,0000%00:00 (00:00)
4 Executive Assault Jul 17, 2015 $12.99N/A (N/A)50,000 .. 100,0000%00:00 (00:00)
5 Ascension: Deckbuilding Game Dec 16, 2014 $9.99N/A (N/A)50,000 .. 100,0000%00:00 (00:00)
6 I am Weapon: Revival Oct 23, 2015 $3.19N/A (N/A)20,000 .. 50,0000%00:00 (00:00)
7 UNLOVED Sep 29, 2016 $9.99N/A (N/A)50,000 .. 100,0000%00:00 (00:00)
8 Bloodsports.TV Mar 30, 2015 $9.99N/A (N/A/69%)100,000 .. 200,0000%00:00 (00:00)
9 Guns, Gore & Cannoli Apr 30, 2015 $9.99N/A (N/A/80%)100,000 .. 200,0000%00:00 (00:00)
10 Stonerid Aug 15, 2014 $0.49N/A (N/A)20,000 .. 50,0000%00:00 (00:00)
11 Tharsis Jan 11, 2016 $14.99N/A (N/A/61%)100,000 .. 200,0000%00:00 (00:00)
12 Battle of Empires : 1914-1918 Jul 22, 2015 $8.99N/A (N/A)50,000 .. 100,0000%00:00 (00:00)
13 The Magic Circle Jul 9, 2015 $19.99N/A (N/A/79%)100,000 .. 200,0000%00:00 (00:00)
14 The Original Strife: Veteran Edition Dec 12, 2014 $9.99N/A (N/A)50,000 .. 100,0000%00:00 (00:00)
15 Halo: Spartan Strike Apr 16, 2015 $2.99N/A (N/A)100,000 .. 200,0000%00:00 (00:00)
16 Chaos Reborn Oct 26, 2015 $9.99N/A (N/A/85%)50,000 .. 100,0000%00:00 (00:00)
17 WASTED Jun 7, 2016 $12.99N/A (N/A/68%)100,000 .. 200,0000%00:00 (00:00)
18 Section 8: Prejudice May 4, 2011 $9.99N/A (N/A/77%)200,000 .. 500,0000%00:00 (00:00)
19 AI War: Fleet Command Oct 21, 2009 $9.99N/A (N/A/80%)200,000 .. 500,0000%00:00 (00:00)
20 Memoir '44 Online Oct 12, 2011 FreeN/A (N/A)200,000 .. 500,0000%00:00 (00:00)
21 Stronghold 2: Steam Edition $14.99N/A (N/A)0 .. 20,0000%00:00 (00:00)
22 Galactic Civilizations II: Ultimate Edition Dec 2, 2011 $19.99N/A (N/A/92%)500,000 .. 1,000,0000%00:00 (00:00)
23 Gratuitous Space Battles Nov 16, 2009 $14.99N/A (N/A/72%)500,000 .. 1,000,0000%00:00 (00:00)
24 Retro City Rampage DX Nov 11, 2014 $14.99N/A (N/A)200,000 .. 500,0000%00:00 (00:00)
25 Sword of the Stars: Complete Collection Oct 3, 2008 $9.99N/A (N/A/75%)100,000 .. 200,0000%00:00 (00:00)
26 Stellar Impact Apr 12, 2012 $9.99N/A (N/A/74%)50,000 .. 100,0000%00:00 (00:00)
27 Jagged Alliance - Back in Action Feb 8, 2012 $19.99N/A (N/A/62%)200,000 .. 500,0000%00:00 (00:00)
28 Apotheon Feb 3, 2015 $14.99N/A (N/A/78%)100,000 .. 200,0000%00:00 (00:00)
29 Blood Bowl - Legendary Edition Oct 28, 2010 $9.99N/A (N/A/73%)200,000 .. 500,0000%00:00 (00:00)
30 Air Conflicts: Pacific Carriers Sep 21, 2012 $9.99N/A (N/A)100,000 .. 200,0000%00:00 (00:00)
31 A Game of Thrones - Genesis Sep 29, 2011 $9.99N/A (N/A)100,000 .. 200,0000%00:00 (00:00)
32 Eufloria HD Oct 14, 2014 $14.99N/A (N/A)100,000 .. 200,0000%00:00 (00:00)
33 Men of War: Vietnam Sep 8, 2011 $7.99N/A (N/A/68%)200,000 .. 500,0000%00:00 (00:00)
34 Disciples III - Renaissance Steam Special Edition Jul 16, 2010 $14.99N/A (N/A/56%)200,000 .. 500,0000%00:00 (00:00)
35 Prospekt Feb 18, 2016 $9.99N/A (N/A/43%)20,000 .. 50,0000%00:00 (00:00)
36 Pharaonic Apr 28, 2016 $14.99N/A (N/A)20,000 .. 50,0000%00:00 (00:00)
37 The Political Machine 2016 Feb 4, 2016 $9.99N/A (N/A)50,000 .. 100,0000%00:00 (00:00)
38 Azure Striker Gunvolt Aug 28, 2015 $14.99N/A (N/A)50,000 .. 100,0000%00:00 (00:00)
39 12 is Better Than 6 Nov 20, 2015 $9.99N/A (N/A/74%)500,000 .. 1,000,0000%00:00 (00:00)
40 Alien Attack Jun 21, 2016 $1.99N/A (N/A)20,000 .. 50,0000%00:00 (00:00)
41 Starward Rogue Jan 20, 2016 $11.99N/A (N/A)50,000 .. 100,0000%00:00 (00:00)
42 Bleed 2 Feb 8, 2017 $9.99N/A (N/A/83%)50,000 .. 100,0000%00:00 (00:00)
43 Master of Orion 2 Nov 22, 1996 $5.99N/A (N/A)100,000 .. 200,0000%00:00 (00:00)
44 Battlevoid: Harbinger Feb 24, 2016 $9.99N/A (N/A)100,000 .. 200,0000%00:00 (00:00)
45 Tap Tap Infinity Jul 17, 2015 FreeN/A (N/A)200,000 .. 500,0000%00:00 (00:00)
46 Sengoku Jidai: Shadow of the Shogun May 19, 2016 $29.99N/A (N/A/85%)0 .. 20,0000%00:00 (00:00)
47 80 Days Sep 28, 2015 $12.99N/A (N/A/84%)100,000 .. 200,0000%00:00 (00:00)
48 Little Big Adventure 2 Oct 20, 2015 $3.99N/A (N/A)20,000 .. 50,0000%00:00 (00:00)
49 E.T. Armies Mar 3, 2016 $14.99N/A (N/A/54%)20,000 .. 50,0000%00:00 (00:00)
50 War of Beach Oct 15, 2015 FreeN/A (N/A)20,000 .. 50,0000%00:00 (00:00)
51 Zombie Party Jun 10, 2016 $9.99N/A (N/A)100,000 .. 200,0000%00:00 (00:00)
52 Afghanistan '11 Mar 23, 2017 $29.99N/A (N/A)0 .. 20,0000%00:00 (00:00)
53 Immortal Redneck Apr 25, 2017 $19.95N/A (N/A/70%)100,000 .. 200,0000%00:00 (00:00)
54 Rento Fortune: Online Dice Board Game (大富翁) Jul 14, 2017 $4.99N/A (N/A)100,000 .. 200,0008.33%00:23 (00:15)
55 Slain: Back from Hell Mar 24, 2016 $3.24N/A (N/A/74%)100,000 .. 200,0000%00:00 (00:00)
56 CRYPTARK Jun 20, 2017 $14.99N/A (N/A/80%)100,000 .. 200,0000%00:00 (00:00)
57 Cast of the Seven Godsends - Redux Jul 20, 2015 $9.99N/A (N/A)20,000 .. 50,0000%00:00 (00:00)
58 Sun Blast: Star Fighter Apr 2, 2015 $1.99N/A (N/A)100,000 .. 200,0000%00:00 (00:00)
59 Letter Quest: Grimm's Journey Remastered Aug 5, 2015 $1.99N/A (N/A)50,000 .. 100,0000%00:00 (00:00)
60 Agent Awesome Feb 17, 2015 $1.99N/A (N/A)200,000 .. 500,0000%00:00 (00:00)
61 Air Brawl Nov 5, 2015 FreeN/A (N/A)100,000 .. 200,0000%00:00 (00:00)
62 Marble Age Mar 4, 2015 $5.99N/A (N/A)50,000 .. 100,0000%00:00 (00:00)
63 Anno 2205 Nov 2, 2015 $39.99N/A (N/A/72%)200,000 .. 500,0000%00:00 (00:00)
64 The Silent Age May 29, 2015 $9.99N/A (N/A)200,000 .. 500,0000%00:00 (00:00)
65 The Surge May 15, 2017 $19.99N/A (N/A/72%)200,000 .. 500,0000%00:00 (00:00)
66 Albino Lullaby: Episode 1 Sep 14, 2015 $9.99N/A (N/A)20,000 .. 50,0000%00:00 (00:00)
67 Lux Delux May 1, 2015 $9.99N/A (N/A)50,000 .. 100,0000%00:00 (00:00)
68 Curious Expedition Sep 2, 2016 $14.99N/A (N/A)200,000 .. 500,0000%00:00 (00:00)
69 Zombie Kill of the Week - Reborn Mar 13, 2015 $6.99N/A (N/A)50,000 .. 100,0000%00:00 (00:00)
70 Battle Brothers Mar 24, 2017 $29.99N/A (N/A/80%)200,000 .. 500,0000%00:00 (00:00)
71 Particula Feb 2, 2015 $0.49N/A (N/A)200,000 .. 500,0000%00:00 (00:00)
72 Duskers May 18, 2016 $19.99N/A (N/A/83%)100,000 .. 200,0000%00:00 (00:00)
73 Deadly 30 Jan 8, 2014 $4.99N/A (N/A)100,000 .. 200,0000%00:00 (00:00)
74 PixelJunk Shooter Nov 11, 2013 $8.99N/A (N/A/73%)100,000 .. 200,0000%00:00 (00:00)
75 Gun Metal Sep 23, 2003 $2.99N/A (N/A)200,000 .. 500,0000%00:00 (00:00)
76 Rebuild 3: Gangs of Deadsville May 29, 2015 $14.99N/A (N/A/75%)200,000 .. 500,0000%00:00 (00:00)
77 Offworld Trading Company Apr 28, 2016 $29.99N/A (N/A/78%)200,000 .. 500,0002.86%02:09 (00:43)
78 Dominions 4: Thrones of Ascension Dec 5, 2013 $34.99N/A (N/A)50,000 .. 100,0000%00:00 (00:00)
79 Serious Sam's Bogus Detour Jun 20, 2017 $14.99N/A (N/A/76%)20,000 .. 50,0000%00:00 (00:00)
80 The Last Tinker: City of Colors May 12, 2014 $9.99N/A (N/A/72%)50,000 .. 100,0000%00:00 (00:00)
81 Megabyte Punch Oct 15, 2013 $14.99N/A (N/A/69%)200,000 .. 500,0000%00:00 (00:00)
82 Assassin’s Creed Liberation HD Jan 15, 2014 $19.99N/A (N/A)100,000 .. 200,0000%00:00 (00:00)
83 Marlow Briggs and the Mask of Death Sep 20, 2013 $4.99N/A (N/A)100,000 .. 200,0000%00:00 (00:00)
84 Bedlam Oct 13, 2015 $12.99N/A (N/A/54%)100,000 .. 200,0000%00:00 (00:00)
85 Kingdom Wars 2: Battles Mar 4, 2016 N/AN/A (N/A)50,000 .. 100,0000%00:00 (00:00)
86 Crimsonland Jun 11, 2014 $13.99N/A (N/A/68%)100,000 .. 200,0000%00:00 (00:00)
87 WARMACHINE: Tactics Nov 20, 2014 $19.99N/A (N/A)100,000 .. 200,0000%00:00 (00:00)
88 Guns n Zombies Oct 30, 2014 $1.99N/A (N/A)100,000 .. 200,0000%00:00 (00:00)
89 America's Army 3 Jun 17, 2009 N/AN/A (N/A/70%)1,000,000 .. 2,000,0000%00:00 (00:00)
90 Grand Ages: Medieval Sep 25, 2015 $19.99N/A (N/A/63%)100,000 .. 200,0000%00:00 (00:00)
91 DEFCON Sep 29, 2006 $9.99N/A (N/A/84%)500,000 .. 1,000,0000%00:00 (00:00)
92 Orbital Gear Aug 7, 2014 $9.99N/A (N/A/59%)200,000 .. 500,0000%00:00 (00:00)
93 Oddworld: Abe's Oddysee Dec 12, 1997 $2.99N/A (N/A)1,000,000 .. 2,000,0000%00:00 (00:00)
94 Crookz - The Big Heist Aug 25, 2015 $9.99N/A (N/A/74%)20,000 .. 50,0000%00:00 (00:00)
95 Cossacks: Back to War Nov 1, 2002 $4.99N/A (N/A/60%)200,000 .. 500,0000%00:00 (00:00)
96 Commando Jack Aug 22, 2014 $7.99N/A (N/A)200,000 .. 500,0000%00:00 (00:00)
97 Oddworld: Abe's Exoddus Nov 17, 1998 $2.99N/A (N/A)200,000 .. 500,0000%00:00 (00:00)
98 Geometry Wars 3: Dimensions Evolved Nov 25, 2014 $14.99N/A (N/A)100,000 .. 200,0000%00:00 (00:00)
99 Shank Oct 25, 2010 $9.99N/A (N/A/67%)200,000 .. 500,0000%00:00 (00:00)
100 GALAK-Z Oct 29, 2015 $19.99N/A (N/A/78%)100,000 .. 200,0000%00:00 (00:00)
101 Oddworld: Munch's Oddysee Dec 20, 2010 $4.99N/A (N/A)200,000 .. 500,0000%00:00 (00:00)
102 Super Trench Attack! Jul 24, 2014 $4.99N/A (N/A)100,000 .. 200,0000%00:00 (00:00)
103 Nexus - The Jupiter Incident Nov 5, 2004 $9.99N/A (N/A/77%)100,000 .. 200,0000%00:00 (00:00)
104 Momodora III Jul 1, 2014 $1.99N/A (N/A)50,000 .. 100,0000%00:00 (00:00)
105 Oddworld: Stranger's Wrath HD Dec 20, 2010 $9.99N/A (N/A)200,000 .. 500,0000%00:00 (00:00)
106 Ys VI: The Ark of Napishtim Apr 28, 2015 $19.99N/A (N/A/76%)50,000 .. 100,0000%00:00 (00:00)
107 Lost Planet: Extreme Condition Jun 26, 2007 $14.99N/A (N/A/66%)200,000 .. 500,0000%00:00 (00:00)
108 Suicide Guy Jul 14, 2017 $4.99N/A (N/A)100,000 .. 200,0000%00:00 (00:00)
109 Nuclear Dawn Sep 26, 2011 $9.99N/A (N/A/71%)200,000 .. 500,0000%00:00 (00:00)
110 Graviteam Tactics: Mius-Front Mar 4, 2016 $34.99N/A (N/A)20,000 .. 50,0000%00:00 (00:00)
111 Railroad Tycoon 3 Oct 23, 2003 $9.99N/A (N/A/80%)200,000 .. 500,0000%00:00 (00:00)
112 Battle Islands Aug 6, 2014 FreeN/A (N/A)500,000 .. 1,000,0000%00:00 (00:00)
113 Brothers in Arms: Earned in Blood Oct 4, 2005 $9.99N/A (N/A/84%)100,000 .. 200,0000%00:00 (00:00)
114 Castlevania: Lords of Shadow – Mirror of Fate HD Mar 27, 2014 $14.99N/A (N/A)100,000 .. 200,0009.09%00:28 (00:09)
115 X-COM: Terror From the Deep Apr 1, 1995 $4.99N/A (N/A)500,000 .. 1,000,0000%00:00 (00:00)
116 Ultimate General: Gettysburg Oct 16, 2014 $14.99N/A (N/A/84%)200,000 .. 500,0000%00:00 (00:00)
117 Hunted: The Demon’s Forge May 30, 2011 $4.99N/A (N/A/61%)100,000 .. 200,0000%00:00 (00:00)
118 The Fall May 30, 2014 $9.99N/A (N/A/76%)200,000 .. 500,0000%00:00 (00:00)
119 Kane and Lynch: Dead Men Nov 13, 2007 $6.99N/A (N/A/67%)500,000 .. 1,000,0000%00:00 (00:00)
120 Platypus Aug 15, 2014 $6.99N/A (N/A)50,000 .. 100,0000%00:00 (00:00)
121 STAR WARS: The Force Unleashed II Oct 26, 2010 $19.99N/A (N/A/59%)1,000,000 .. 2,000,0003.7%16:59 (10:42)
122 NOBUNAGA'S AMBITION: Souzou (Traditional Chinese version) Aug 2014 $24.99N/A (N/A)20,000 .. 50,0000%00:00 (00:00)
123 7 Grand Steps: What Ancients Begat Jun 7, 2013 $19.99N/A (N/A)100,000 .. 200,0000%00:00 (00:00)
124 Ace Combat Assault Horizon - Enhanced Edition Jan 25, 2013 N/AN/A (N/A/77%)200,000 .. 500,0000%00:00 (00:00)
125 Epigenesis Aug 1, 2014 FreeN/A (N/A)200,000 .. 500,0000%00:00 (00:00)
126 ShootMania Storm Apr 10, 2013 $19.99N/A (N/A/76%)50,000 .. 100,0000%00:00 (00:00)
127 ENSLAVED: Odyssey to the West Premium Edition Oct 24, 2013 $19.99N/A (N/A/70%)200,000 .. 500,0000%00:00 (00:00)
128 Deadfall Adventures Nov 15, 2013 $19.99N/A (N/A/53%)100,000 .. 200,0000%00:00 (00:00)
129 Legacy of Kain: Defiance Dec 17, 2003 $6.99N/A (N/A/70%)200,000 .. 500,0000%00:00 (00:00)
130 Leisure Suit Larry in the Land of the Lounge Lizards: Reloaded Jun 27, 2013 N/AN/A (N/A)50,000 .. 100,0000%00:00 (00:00)
131 Tomb Raider IV: The Last Revelation Nov 28, 2012 $6.99N/A (N/A)500,000 .. 1,000,0000%00:00 (00:00)
132 Eador. Masters of the Broken World Apr 19, 2013 $19.99N/A (N/A/74%)500,000 .. 1,000,0000%00:00 (00:00)
133 Tomb Raider II Nov 28, 2012 $6.99N/A (N/A)500,000 .. 1,000,0000%00:00 (00:00)
134 Final Exam Nov 5, 2013 $9.99N/A (N/A/66%)100,000 .. 200,0000%00:00 (00:00)
135 Age of Wonders III Mar 31, 2014 $7.49N/A (N/A/80%)1,000,000 .. 2,000,0000%00:00 (00:00)
136 Original War Jun 15, 2001 $4.99N/A (N/A/61%)100,000 .. 200,0000%00:00 (00:00)
137 Scourge: Outbreak Apr 2, 2014 $5.99N/A (N/A)100,000 .. 200,0000%00:00 (00:00)
138 Anomaly 2 May 15, 2013 $14.99N/A (N/A/77%)100,000 .. 200,0000%00:00 (00:00)
139 Fallen Enchantress: Legendary Heroes May 22, 2013 $24.99N/A (N/A/80%)200,000 .. 500,0000%00:00 (00:00)
140 Carmageddon: Max Damage Oct 27, 2016 $16.99N/A (N/A)200,000 .. 500,0000%00:00 (00:00)
141 Strike Vector EX Jul 19, 2017 $11.99N/A (N/A)100,000 .. 200,0000%00:00 (00:00)
142 Realpolitiks Feb 16, 2017 $24.99N/A (N/A/52%)20,000 .. 50,0000%00:00 (00:00)
143 Eador. Imperium Jan 27, 2017 $19.99N/A (N/A)20,000 .. 50,0000%00:00 (00:00)
144 Deadlight: Director's Cut Jun 21, 2016 $11.99N/A (N/A)100,000 .. 200,0000%00:00 (00:00)
145 Slash or Die Jun 3, 2016 $2.99N/A (N/A)20,000 .. 50,0000%00:00 (00:00)
146 Phoning Home Feb 7, 2017 $19.99N/A (N/A/61%)20,000 .. 50,00020%00:30 (00:15)
147 Radical Spectrum: Volume 1 Jul 8, 2016 $0.99N/A (N/A)100,000 .. 200,0000%00:00 (00:00)
148 STAR WARS Rebellion Mar 1, 2016 $5.99N/A (N/A)200,000 .. 500,0000%00:00 (00:00)
149 Imperium Galactica II Dec 1, 1999 $9.99N/A (N/A)20,000 .. 50,0000%00:00 (00:00)
150 Age of Gladiators Feb 25, 2016 $9.99N/A (N/A)50,000 .. 100,0000%00:00 (00:00)
151 RiME May 26, 2017 $29.99N/A (N/A/78%)200,000 .. 500,0000%00:00 (00:00)
152 Planar Conquest May 30, 2016 $19.99N/A (N/A/53%)20,000 .. 50,0000%00:00 (00:00)
153 Noob Squad Oct 5, 2016 $0.99N/A (N/A)20,000 .. 50,0000%00:00 (00:00)
154 Mad Bullets Jun 10, 2016 $2.99N/A (N/A)0 .. 20,0000%00:00 (00:00)
155 Sorcerer King: Rivals Sep 22, 2016 $19.99N/A (N/A)20,000 .. 50,0000%00:00 (00:00)
156 GIGA WRECKER Feb 6, 2017 $19.99N/A (N/A/75%)20,000 .. 50,0000%00:00 (00:00)

Tags over time:

Access restricted.

This feature is only available to users with special access rights. Sorry.

If you want to proceed, you need to register or log in first and then back Steam Spy on Patreon. Look for Indie or Pro pledge.

Don't forget to use the same email as on Steam Spy!

Owners of this game also own:

Access restricted.

This feature is only available to users with special access rights. Sorry.

If you want to proceed, you need to register or log in first and then back Steam Spy on Patreon. Look for Indie or Pro pledge.

Don't forget to use the same email as on Steam Spy!

Playtime distribution:

Access restricted.

This feature is only available to users with special access rights. Sorry.

If you want to proceed, you need to register or log in first and then back Steam Spy on Patreon. Look for Indie or Pro pledge.

Don't forget to use the same email as on Steam Spy!

Playtime (2 weeks):

Access restricted.

This feature is only available to users with special access rights. Sorry.

If you want to proceed, you need to register or log in first and then back Steam Spy on Patreon. Look for Indie or Pro pledge.

Don't forget to use the same email as on Steam Spy!

User reviews:

Login required.

Please register or log in to see this information.